sensor_id;sensor_type;location;lat;lon;timestamp;pressure;altitude;pressure_sealevel;temperature;humidity
72798;BME280;61084;55.816;37.036;2023-02-01T00:01:56;98132.16;;;2.46;71.30
72798;BME280;61084;55.816;37.036;2023-02-01T00:04:22;98125.16;;;2.48;71.47
72798;BME280;61084;55.816;37.036;2023-02-01T00:06:50;98125.97;;;2.48;71.35
72798;BME280;61084;55.816;37.036;2023-02-01T00:09:16;98125.00;;;2.51;71.59
72798;BME280;61084;55.816;37.036;2023-02-01T00:11:41;98117.25;;;2.51;71.13
72798;BME280;61084;55.816;37.036;2023-02-01T00:14:07;98129.34;;;2.50;71.42
72798;BME280;61084;55.816;37.036;2023-02-01T00:16:33;98125.94;;;2.50;71.44
72798;BME280;61084;55.816;37.036;2023-02-01T00:19:13;98126.75;;;2.50;71.81
72798;BME280;61084;55.816;37.036;2023-02-01T00:21:40;98128.44;;;2.51;71.65
72798;BME280;61084;55.816;37.036;2023-02-01T00:24:07;98126.75;;;2.50;71.64
72798;BME280;61084;55.816;37.036;2023-02-01T00:26:39;98124.13;;;2.52;71.96
72798;BME280;61084;55.816;37.036;2023-02-01T00:29:14;98123.28;;;2.51;71.25
72798;BME280;61084;55.816;37.036;2023-02-01T00:31:40;98125.00;;;2.51;71.75
72798;BME280;61084;55.816;37.036;2023-02-01T00:34:07;98125.00;;;2.51;71.61
72798;BME280;61084;55.816;37.036;2023-02-01T00:36:34;98126.75;;;2.50;71.47
72798;BME280;61084;55.816;37.036;2023-02-01T00:39:00;98124.25;;;2.49;71.84
72798;BME280;61084;55.816;37.036;2023-02-01T00:41:25;98126.75;;;2.50;71.54
72798;BME280;61084;55.816;37.036;2023-02-01T00:43:52;98129.34;;;2.50;71.69
72798;BME280;61084;55.816;37.036;2023-02-01T00:46:19;98131.94;;;2.50;71.91
72798;BME280;61084;55.816;37.036;2023-02-01T00:48:45;98133.63;;;2.51;71.95
72798;BME280;61084;55.816;37.036;2023-02-01T00:51:13;98136.28;;;2.50;71.97
72798;BME280;61084;55.816;37.036;2023-02-01T00:53:39;98138.94;;;2.48;72.17
72798;BME280;61084;55.816;37.036;2023-02-01T00:56:05;98138.88;;;2.50;71.97
72798;BME280;61084;55.816;37.036;2023-02-01T00:58:32;98137.97;;;2.51;72.14
72798;BME280;61084;55.816;37.036;2023-02-01T01:01:16;98139.78;;;2.49;72.23
72798;BME280;61084;55.816;37.036;2023-02-01T01:03:45;98138.03;;;2.49;72.19
72798;BME280;61084;55.816;37.036;2023-02-01T01:06:16;98137.06;;;2.52;71.67
72798;BME280;61084;55.816;37.036;2023-02-01T01:08:43;98144.00;;;2.51;71.68
72798;BME280;61084;55.816;37.036;2023-02-01T01:11:14;98147.44;;;2.52;71.65
72798;BME280;61084;55.816;37.036;2023-02-01T01:13:40;98146.50;;;2.53;72.19
72798;BME280;61084;55.816;37.036;2023-02-01T01:16:10;98149.88;;;2.55;71.73
72798;BME280;61084;55.816;37.036;2023-02-01T01:18:36;98146.47;;;2.54;71.98
72798;BME280;61084;55.816;37.036;2023-02-01T01:21:07;98143.81;;;2.56;71.79
72798;BME280;61084;55.816;37.036;2023-02-01T01:23:34;98147.25;;;2.56;72.21
72798;BME280;61084;55.816;37.036;2023-02-01T01:26:00;98146.41;;;2.56;71.93
72798;BME280;61084;55.816;37.036;2023-02-01T01:28:26;98147.94;;;2.60;71.95
72798;BME280;61084;55.816;37.036;2023-02-01T01:30:52;98145.44;;;2.58;71.84
72798;BME280;61084;55.816;37.036;2023-02-01T01:33:18;98148.06;;;2.57;71.70
72798;BME280;61084;55.816;37.036;2023-02-01T01:35:44;98147.16;;;2.58;72.17
72798;BME280;61084;55.816;37.036;2023-02-01T01:38:10;98142.00;;;2.58;72.19
72798;BME280;61084;55.816;37.036;2023-02-01T01:40:37;98149.69;;;2.59;71.84
72798;BME280;61084;55.816;37.036;2023-02-01T01:43:18;98152.28;;;2.59;72.08
72798;BME280;61084;55.816;37.036;2023-02-01T01:45:49;98148.03;;;2.58;72.28
72798;BME280;61084;55.816;37.036;2023-02-01T01:48:27;98143.69;;;2.59;71.84
72798;BME280;61084;55.816;37.036;2023-02-01T01:51:07;98147.09;;;2.59;71.73
72798;BME280;61084;55.816;37.036;2023-02-01T01:53:45;98146.31;;;2.57;71.79
72798;BME280;61084;55.816;37.036;2023-02-01T01:56:13;98139.50;;;2.55;72.19
72798;BME280;61084;55.816;37.036;2023-02-01T01:58:40;98142.97;;;2.55;71.95
72798;BME280;61084;55.816;37.036;2023-02-01T02:01:06;98142.97;;;2.55;71.91
72798;BME280;61084;55.816;37.036;2023-02-01T02:03:35;98142.06;;;2.56;71.83
72798;BME280;61084;55.816;37.036;2023-02-01T02:06:05;98139.41;;;2.58;71.44
72798;BME280;61084;55.816;37.036;2023-02-01T02:08:34;98140.19;;;2.60;71.71
72798;BME280;61084;55.816;37.036;2023-02-01T02:11:02;98146.22;;;2.60;71.93
72798;BME280;61084;55.816;37.036;2023-02-01T02:13:38;98136.69;;;2.61;71.63
72798;BME280;61084;55.816;37.036;2023-02-01T02:16:40;98150.47;;;2.61;71.90
72798;BME280;61084;55.816;37.036;2023-02-01T02:22:57;98146.31;;;2.57;71.73
72798;BME280;61084;55.816;37.036;2023-02-01T02:25:46;98154.28;;;2.53;71.85
72798;BME280;61084;55.816;37.036;2023-02-01T02:30:59;98153.38;;;2.54;71.94
72798;BME280;61084;55.816;37.036;2023-02-01T02:33:50;98153.38;;;2.54;71.74
72798;BME280;61084;55.816;37.036;2023-02-01T02:39:25;98159.59;;;2.50;71.74
72798;BME280;61084;55.816;37.036;2023-02-01T02:42:43;98163.06;;;2.49;71.37
72798;BME280;61084;55.816;37.036;2023-02-01T02:45:52;98167.47;;;2.47;71.89
72798;BME280;61084;55.816;37.036;2023-02-01T02:48:45;98169.09;;;2.49;71.77
72798;BME280;61084;55.816;37.036;2023-02-01T02:51:15;98160.41;;;2.50;71.80
72798;BME280;61084;55.816;37.036;2023-02-01T02:54:13;98161.22;;;2.52;71.52
72798;BME280;61084;55.816;37.036;2023-02-01T02:57:00;98162.00;;;2.54;71.54
72798;BME280;61084;55.816;37.036;2023-02-01T02:59:47;98167.97;;;2.56;71.66
72798;BME280;61084;55.816;37.036;2023-02-01T03:02:33;98173.06;;;2.58;71.48
72798;BME280;61084;55.816;37.036;2023-02-01T03:05:18;98174.09;;;2.54;71.85
72798;BME280;61084;55.816;37.036;2023-02-01T03:21:21;98176.88;;;2.49;71.55
72798;BME280;61084;55.816;37.036;2023-02-01T03:23:49;98177.66;;;2.51;71.37
72798;BME280;61084;55.816;37.036;2023-02-01T03:26:18;98177.75;;;2.48;71.38
72798;BME280;61084;55.816;37.036;2023-02-01T03:28:54;98184.72;;;2.48;71.33
72798;BME280;61084;55.816;37.036;2023-02-01T03:31:22;98183.88;;;2.47;71.36
72798;BME280;61084;55.816;37.036;2023-02-01T03:33:48;98183.88;;;2.47;71.53
72798;BME280;61084;55.816;37.036;2023-02-01T03:36:24;98193.25;;;2.50;71.47
72798;BME280;61084;55.816;37.036;2023-02-01T03:41:41;98196.75;;;2.49;71.56
72798;BME280;61084;55.816;37.036;2023-02-01T03:46:57;98203.63;;;2.50;71.52
72798;BME280;61084;55.816;37.036;2023-02-01T03:49:34;98206.06;;;2.53;71.51
72798;BME280;61084;55.816;37.036;2023-02-01T03:52:05;98206.91;;;2.53;71.66
72798;BME280;61084;55.816;37.036;2023-02-01T03:54:33;98206.84;;;2.55;71.71
72798;BME280;61084;55.816;37.036;2023-02-01T03:57:02;98202.53;;;2.55;71.26
72798;BME280;61084;55.816;37.036;2023-02-01T03:59:30;98205.00;;;2.58;71.28
72798;BME280;61084;55.816;37.036;2023-02-01T04:01:56;98211.13;;;2.56;71.17
72798;BME280;61084;55.816;37.036;2023-02-01T04:04:22;98209.41;;;2.56;71.42
72798;BME280;61084;55.816;37.036;2023-02-01T04:06:51;98212.03;;;2.55;71.04
72798;BME280;61084;55.816;37.036;2023-02-01T04:09:18;98218.06;;;2.55;71.53
72798;BME280;61084;55.816;37.036;2023-02-01T04:11:44;98222.38;;;2.55;71.29
72798;BME280;61084;55.816;37.036;2023-02-01T04:14:09;98217.09;;;2.58;71.43
72798;BME280;61084;55.816;37.036;2023-02-01T04:16:37;98211.84;;;2.59;71.50
72798;BME280;61084;55.816;37.036;2023-02-01T04:19:03;98217.88;;;2.60;71.15
72798;BME280;61084;55.816;37.036;2023-02-01T04:21:29;98217.88;;;2.60;70.96
72798;BME280;61084;55.816;37.036;2023-02-01T04:23:55;98215.28;;;2.60;71.36
72798;BME280;61084;55.816;37.036;2023-02-01T04:26:21;98223.06;;;2.60;71.19
72798;BME280;61084;55.816;37.036;2023-02-01T04:28:47;98223.97;;;2.59;71.02
72798;BME280;61084;55.816;37.036;2023-02-01T04:31:17;98220.47;;;2.60;71.25
72798;BME280;61084;55.816;37.036;2023-02-01T04:33:49;98227.44;;;2.58;71.18
72798;BME280;61084;55.816;37.036;2023-02-01T04:36:15;98225.72;;;2.58;70.99
72798;BME280;61084;55.816;37.036;2023-02-01T04:38:45;98226.69;;;2.56;71.28
72798;BME280;61084;55.816;37.036;2023-02-01T04:41:10;98230.03;;;2.58;71.25
72798;BME280;61084;55.816;37.036;2023-02-01T04:43:36;98241.25;;;2.58;71.32
72798;BME280;61084;55.816;37.036;2023-02-01T04:46:02;98244.69;;;2.59;70.89
72798;BME280;61084;55.816;37.036;2023-02-01T04:48:28;98243.84;;;2.58;71.14
72798;BME280;61084;55.816;37.036;2023-02-01T04:50:56;98243.00;;;2.58;70.89
72798;BME280;61084;55.816;37.036;2023-02-01T04:53:21;98247.22;;;2.60;71.05
72798;BME280;61084;55.816;37.036;2023-02-01T04:55:48;98250.59;;;2.62;71.23
72798;BME280;61084;55.816;37.036;2023-02-01T04:58:15;98255.75;;;2.62;71.28
72798;BME280;61084;55.816;37.036;2023-02-01T05:00:41;98253.09;;;2.64;70.94
72798;BME280;61084;55.816;37.036;2023-02-01T05:03:09;98244.47;;;2.63;71.00
72798;BME280;61084;55.816;37.036;2023-02-01T05:05:35;98250.50;;;2.64;71.03
72798;BME280;61084;55.816;37.036;2023-02-01T05:08:00;98258.25;;;2.65;70.81
72798;BME280;61084;55.816;37.036;2023-02-01T05:10:29;98251.38;;;2.64;71.24
72798;BME280;61084;55.816;37.036;2023-02-01T05:12:54;98255.66;;;2.65;71.24
72798;BME280;61084;55.816;37.036;2023-02-01T05:15:39;98259.06;;;2.66;71.33
72798;BME280;61084;55.816;37.036;2023-02-01T05:18:04;98253.09;;;2.64;70.82
72798;BME280;61084;55.816;37.036;2023-02-01T05:20:30;98258.34;;;2.62;71.18
72798;BME280;61084;55.816;37.036;2023-02-01T05:22:56;98258.28;;;2.64;71.07
72798;BME280;61084;55.816;37.036;2023-02-01T05:25:22;98258.28;;;2.64;71.05
72798;BME280;61084;55.816;37.036;2023-02-01T05:27:48;98258.25;;;2.65;71.44
72798;BME280;61084;55.816;37.036;2023-02-01T05:30:14;98260.75;;;2.67;71.25
72798;BME280;61084;55.816;37.036;2023-02-01T05:32:40;98266.78;;;2.67;71.07
72798;BME280;61084;55.816;37.036;2023-02-01T05:35:06;98260.75;;;2.67;71.38
72798;BME280;61084;55.816;37.036;2023-02-01T05:37:32;98268.47;;;2.68;70.97
72798;BME280;61084;55.816;37.036;2023-02-01T05:39:58;98268.47;;;2.68;70.95
72798;BME280;61084;55.816;37.036;2023-02-01T05:42:23;98265.03;;;2.68;71.03
72798;BME280;61084;55.816;37.036;2023-02-01T05:44:49;98265.88;;;2.68;70.93
72798;BME280;61084;55.816;37.036;2023-02-01T05:47:15;98270.16;;;2.69;70.98
72798;BME280;61084;55.816;37.036;2023-02-01T05:49:40;98267.56;;;2.69;71.20
72798;BME280;61084;55.816;37.036;2023-02-01T05:52:06;98281.41;;;2.68;70.87
72798;BME280;61084;55.816;37.036;2023-02-01T05:54:32;98275.34;;;2.69;70.98
72798;BME280;61084;55.816;37.036;2023-02-01T05:56:58;98275.34;;;2.69;71.45
72798;BME280;61084;55.816;37.036;2023-02-01T05:59:23;98277.03;;;2.70;71.20
72798;BME280;61084;55.816;37.036;2023-02-01T06:01:49;98276.25;;;2.68;71.00
72798;BME280;61084;55.816;37.036;2023-02-01T06:04:15;98276.25;;;2.68;71.16
72798;BME280;61084;55.816;37.036;2023-02-01T06:06:40;98282.19;;;2.70;70.99
72798;BME280;61084;55.816;37.036;2023-02-01T06:09:06;98288.22;;;2.71;71.58
72798;BME280;61084;55.816;37.036;2023-02-01T06:11:32;98287.34;;;2.72;71.09
72798;BME280;61084;55.816;37.036;2023-02-01T06:13:58;98293.41;;;2.71;71.13
72798;BME280;61084;55.816;37.036;2023-02-01T06:16:24;98301.13;;;2.72;71.26
72798;BME280;61084;55.816;37.036;2023-02-01T06:18:49;98297.69;;;2.72;71.06
72798;BME280;61084;55.816;37.036;2023-02-01T06:21:15;98294.25;;;2.71;71.32
72798;BME280;61084;55.816;37.036;2023-02-01T06:23:50;98295.94;;;2.72;71.15
72798;BME280;61084;55.816;37.036;2023-02-01T06:26:16;98307.06;;;2.74;71.28
72798;BME280;61084;55.816;37.036;2023-02-01T06:28:43;98295.81;;;2.75;71.28
72798;BME280;61084;55.816;37.036;2023-02-01T06:31:09;98296.66;;;2.76;71.26
72798;BME280;61084;55.816;37.036;2023-02-01T06:33:36;98298.34;;;2.77;71.55
72798;BME280;61084;55.816;37.036;2023-02-01T06:36:04;98303.53;;;2.77;71.59
72798;BME280;61084;55.816;37.036;2023-02-01T06:38:31;98310.41;;;2.78;71.17
72798;BME280;61084;55.816;37.036;2023-02-01T06:40:57;98305.22;;;2.78;71.60
72798;BME280;61084;55.816;37.036;2023-02-01T06:43:24;98307.75;;;2.79;71.25
72798;BME280;61084;55.816;37.036;2023-02-01T06:45:50;98312.03;;;2.80;71.18
72798;BME280;61084;55.816;37.036;2023-02-01T06:48:17;98306.78;;;2.82;71.55
72798;BME280;61084;55.816;37.036;2023-02-01T06:50:43;98311.91;;;2.83;71.32
72798;BME280;61084;55.816;37.036;2023-02-01T06:53:09;98309.28;;;2.85;71.01
72798;BME280;61084;55.816;37.036;2023-02-01T06:55:35;98311.00;;;2.84;71.41
72798;BME280;61084;55.816;37.036;2023-02-01T06:58:01;98308.47;;;2.83;71.24
72798;BME280;61084;55.816;37.036;2023-02-01T07:00:28;98319.63;;;2.85;71.28
72798;BME280;61084;55.816;37.036;2023-02-01T07:02:54;98316.13;;;2.86;71.53
72798;BME280;61084;55.816;37.036;2023-02-01T07:05:21;98317.88;;;2.85;71.45
72798;BME280;61084;55.816;37.036;2023-02-01T07:07:47;98319.56;;;2.86;71.28
72798;BME280;61084;55.816;37.036;2023-02-01T07:10:12;98315.16;;;2.88;71.27
72798;BME280;61084;55.816;37.036;2023-02-01T07:12:38;98310.06;;;2.87;71.00
72798;BME280;61084;55.816;37.036;2023-02-01T07:15:05;98316.13;;;2.86;71.50
72798;BME280;61084;55.816;37.036;2023-02-01T07:17:31;98317.75;;;2.88;71.06
72798;BME280;61084;55.816;37.036;2023-02-01T07:19:57;98321.13;;;2.90;71.32
72798;BME280;61084;55.816;37.036;2023-02-01T07:22:26;98319.31;;;2.92;71.35
72798;BME280;61084;55.816;37.036;2023-02-01T07:24:52;98315.75;;;2.95;70.95
72798;BME280;61084;55.816;37.036;2023-02-01T07:27:17;98322.69;;;2.94;70.88
72798;BME280;61084;55.816;37.036;2023-02-01T07:29:43;98325.22;;;2.96;71.39
72798;BME280;61084;55.816;37.036;2023-02-01T07:32:09;98327.09;;;2.92;71.02
72798;BME280;61084;55.816;37.036;2023-02-01T07:34:34;98319.38;;;2.91;70.88
72798;BME280;61084;55.816;37.036;2023-02-01T07:37:00;98323.78;;;2.89;70.95
72798;BME280;61084;55.816;37.036;2023-02-01T07:39:26;98320.34;;;2.88;71.00
72798;BME280;61084;55.816;37.036;2023-02-01T07:41:54;98324.56;;;2.91;71.23
72798;BME280;61084;55.816;37.036;2023-02-01T07:44:19;98322.78;;;2.91;71.08
72798;BME280;61084;55.816;37.036;2023-02-01T07:46:49;98320.94;;;2.95;71.26
72798;BME280;61084;55.816;37.036;2023-02-01T07:49:14;98324.38;;;2.95;71.12
72798;BME280;61084;55.816;37.036;2023-02-01T07:51:40;98314.81;;;2.97;71.24
72798;BME280;61084;55.816;37.036;2023-02-01T07:54:06;98317.50;;;2.94;71.20
72798;BME280;61084;55.816;37.036;2023-02-01T07:56:32;98319.22;;;2.95;70.91
72798;BME280;61084;55.816;37.036;2023-02-01T07:58:57;98314.03;;;2.95;70.72
72798;BME280;61084;55.816;37.036;2023-02-01T08:01:27;98319.25;;;2.94;71.13
72798;BME280;61084;55.816;37.036;2023-02-01T08:03:55;98324.56;;;2.91;71.38
72798;BME280;61084;55.816;37.036;2023-02-01T08:06:23;98318.44;;;2.93;71.01
72798;BME280;61084;55.816;37.036;2023-02-01T08:08:50;98327.81;;;2.96;71.01
72798;BME280;61084;55.816;37.036;2023-02-01T08:11:16;98327.69;;;2.99;70.80
72798;BME280;61084;55.816;37.036;2023-02-01T08:13:43;98320.69;;;3.01;71.26
72798;BME280;61084;55.816;37.036;2023-02-01T08:16:11;98323.22;;;3.02;70.78
72798;BME280;61084;55.816;37.036;2023-02-01T08:18:38;98325.00;;;3.02;70.95
72798;BME280;61084;55.816;37.036;2023-02-01T08:21:25;98322.56;;;2.97;71.20
72798;BME280;61084;55.816;37.036;2023-02-01T08:23:52;98323.53;;;2.95;70.41
72798;BME280;61084;55.816;37.036;2023-02-01T08:28:51;98316.53;;;2.97;70.58
72798;BME280;61084;55.816;37.036;2023-02-01T08:31:19;98319.13;;;2.97;70.91
72798;BME280;61084;55.816;37.036;2023-02-01T08:33:49;98320.81;;;2.98;70.44
72798;BME280;61084;55.816;37.036;2023-02-01T08:36:15;98309.72;;;2.94;70.75
72798;BME280;61084;55.816;37.036;2023-02-01T08:38:40;98314.91;;;2.94;70.88
72798;BME280;61084;55.816;37.036;2023-02-01T08:41:14;98317.50;;;2.94;70.96
72798;BME280;61084;55.816;37.036;2023-02-01T08:43:41;98316.63;;;2.95;70.38
72798;BME280;61084;55.816;37.036;2023-02-01T08:46:07;98313.88;;;2.98;70.82
72798;BME280;61084;55.816;37.036;2023-02-01T08:48:34;98315.41;;;3.04;70.75
72798;BME280;61084;55.816;37.036;2023-02-01T08:51:04;98315.22;;;3.09;70.40
72798;BME280;61084;55.816;37.036;2023-02-01T08:53:31;98317.63;;;3.13;70.48
72798;BME280;61084;55.816;37.036;2023-02-01T08:55:57;98313.22;;;3.15;70.57
72798;BME280;61084;55.816;37.036;2023-02-01T08:58:22;98307.84;;;3.20;69.97
72798;BME280;61084;55.816;37.036;2023-02-01T09:00:48;98311.22;;;3.22;70.51
72798;BME280;61084;55.816;37.036;2023-02-01T09:03:15;98311.94;;;3.25;69.90
72798;BME280;61084;55.816;37.036;2023-02-01T09:05:41;98310.97;;;3.28;70.17
72798;BME280;61084;55.816;37.036;2023-02-01T09:08:07;98306.63;;;3.28;70.19
72798;BME280;61084;55.816;37.036;2023-02-01T09:10:34;98313.56;;;3.28;70.18
72798;BME280;61084;55.816;37.036;2023-02-01T09:13:00;98317.88;;;3.27;70.22
72798;BME280;61084;55.816;37.036;2023-02-01T09:15:25;98315.22;;;3.29;70.10
72798;BME280;61084;55.816;37.036;2023-02-01T09:17:51;98316.00;;;3.31;69.86
72798;BME280;61084;55.816;37.036;2023-02-01T09:20:17;98312.44;;;3.33;70.16
72798;BME280;61084;55.816;37.036;2023-02-01T09:22:45;98307.34;;;3.32;69.67
72798;BME280;61084;55.816;37.036;2023-02-01T09:25:11;98311.47;;;3.36;69.80
72798;BME280;61084;55.816;37.036;2023-02-01T09:27:38;98307.91;;;3.38;70.05
72798;BME280;61084;55.816;37.036;2023-02-01T09:30:04;98303.41;;;3.43;69.63
72798;BME280;61084;55.816;37.036;2023-02-01T09:32:30;98306.88;;;3.42;69.45
72798;BME280;61084;55.816;37.036;2023-02-01T09:34:56;98308.59;;;3.43;69.68
72798;BME280;61084;55.816;37.036;2023-02-01T09:37:22;98310.13;;;3.47;69.28
72798;BME280;61084;55.816;37.036;2023-02-01T09:39:48;98315.44;;;3.44;69.20
72798;BME280;61084;55.816;37.036;2023-02-01T09:42:48;98312.78;;;3.46;69.64
72798;BME280;61084;55.816;37.036;2023-02-01T09:45:49;98306.81;;;3.44;69.02
72798;BME280;61084;55.816;37.036;2023-02-01T09:48:21;98309.34;;;3.45;69.38
72798;BME280;61084;55.816;37.036;2023-02-01T09:50:53;98307.53;;;3.47;68.94
72798;BME280;61084;55.816;37.036;2023-02-01T09:53:25;98303.13;;;3.49;68.97
72798;BME280;61084;55.816;37.036;2023-02-01T09:56:02;98301.31;;;3.51;69.33
72798;BME280;61084;55.816;37.036;2023-02-01T09:58:36;98296.81;;;3.55;69.25
72798;BME280;61084;55.816;37.036;2023-02-01T10:01:08;98292.28;;;3.60;69.21
72798;BME280;61084;55.816;37.036;2023-02-01T10:03:37;98296.50;;;3.62;69.05
72798;BME280;61084;55.816;37.036;2023-02-01T10:21:52;98295.16;;;3.74;68.57
72798;BME280;61084;55.816;37.036;2023-02-01T10:24:28;98290.66;;;3.77;69.05
72798;BME280;61084;55.816;37.036;2023-02-01T10:27:06;98291.44;;;3.79;68.72
72798;BME280;61084;55.816;37.036;2023-02-01T10:29:40;98287.09;;;3.80;68.78
72798;BME280;61084;55.816;37.036;2023-02-01T10:32:35;98288.72;;;3.83;68.49
72798;BME280;61084;55.816;37.036;2023-02-01T10:35:27;98289.50;;;3.85;68.55
72798;BME280;61084;55.816;37.036;2023-02-01T10:37:49;98285.34;;;3.80;68.26
72798;BME280;61084;55.816;37.036;2023-02-01T10:40:22;98291.44;;;3.79;68.52
72798;BME280;61084;55.816;37.036;2023-02-01T10:42:51;98292.31;;;3.78;68.19
72798;BME280;61084;55.816;37.036;2023-02-01T10:45:19;98294.09;;;3.78;68.59
72798;BME280;61084;55.816;37.036;2023-02-01T10:47:48;98295.78;;;3.79;68.46
72798;BME280;61084;55.816;37.036;2023-02-01T10:50:33;98290.16;;;3.69;68.15
72798;BME280;61084;55.816;37.036;2023-02-01T10:53:15;98283.34;;;3.67;67.95
72798;BME280;61084;55.816;37.036;2023-02-01T10:58:31;98280.47;;;3.73;67.96
72798;BME280;61084;55.816;37.036;2023-02-01T11:01:06;98278.66;;;3.75;67.86
72798;BME280;61084;55.816;37.036;2023-02-01T11:03:41;98283.84;;;3.75;67.60
72798;BME280;61084;55.816;37.036;2023-02-01T11:06:30;98282.09;;;3.75;67.89
72798;BME280;61084;55.816;37.036;2023-02-01T11:09:09;98275.28;;;3.73;67.76
72798;BME280;61084;55.816;37.036;2023-02-01T11:11:54;98281.13;;;3.78;68.02
72798;BME280;61084;55.816;37.036;2023-02-01T11:16:53;98280.19;;;3.79;67.70
72798;BME280;61084;55.816;37.036;2023-02-01T11:19:20;98285.38;;;3.79;67.66
72798;BME280;61084;55.816;37.036;2023-02-01T11:21:54;98281.91;;;3.80;67.78
72798;BME280;61084;55.816;37.036;2023-02-01T11:24:29;98287.13;;;3.78;67.22
72798;BME280;61084;55.816;37.036;2023-02-01T11:26:58;98285.38;;;3.79;67.34
72798;BME280;61084;55.816;37.036;2023-02-01T11:29:25;98292.47;;;3.75;67.52
72798;BME280;61084;55.816;37.036;2023-02-01T11:31:59;98292.56;;;3.74;67.39
72798;BME280;61084;55.816;37.036;2023-02-01T11:34:36;98293.56;;;3.70;67.37
72798;BME280;61084;55.816;37.036;2023-02-01T11:37:03;98293.56;;;3.70;67.34
72798;BME280;61084;55.816;37.036;2023-02-01T11:39:32;98292.94;;;3.65;67.79
72798;BME280;61084;55.816;37.036;2023-02-01T11:42:23;98295.47;;;3.66;67.18
72798;BME280;61084;55.816;37.036;2023-02-01T11:44:47;98299.88;;;3.64;67.49
72798;BME280;61084;55.816;37.036;2023-02-01T11:49:53;98300.78;;;3.63;67.22
72798;BME280;61084;55.816;37.036;2023-02-01T12:03:13;98303.81;;;3.53;67.88
72798;BME280;61084;55.816;37.036;2023-02-01T12:11:27;98315.31;;;3.47;67.49
72798;BME280;61084;55.816;37.036;2023-02-01T12:14:17;98306.03;;;3.42;67.40
72798;BME280;61084;55.816;37.036;2023-02-01T12:17:11;98309.53;;;3.41;67.74
72798;BME280;61084;55.816;37.036;2023-02-01T12:25:05;98322.63;;;3.38;67.50
72798;BME280;61084;55.816;37.036;2023-02-01T12:33:11;98321.84;;;3.36;67.39
72798;BME280;61084;55.816;37.036;2023-02-01T12:44:10;98318.47;;;3.34;67.58
72798;BME280;61084;55.816;37.036;2023-02-01T12:49:10;98323.00;;;3.29;67.61
72798;BME280;61084;55.816;37.036;2023-02-01T12:51:40;98333.34;;;3.30;67.64
72798;BME280;61084;55.816;37.036;2023-02-01T12:54:12;98323.00;;;3.29;67.91
72798;BME280;61084;55.816;37.036;2023-02-01T12:56:46;98329.13;;;3.28;67.92
72798;BME280;61084;55.816;37.036;2023-02-01T12:59:24;98318.81;;;3.26;67.96
72798;BME280;61084;55.816;37.036;2023-02-01T13:04:52;98321.41;;;3.26;68.25
72798;BME280;61084;55.816;37.036;2023-02-01T13:07:26;98326.78;;;3.22;67.96
72798;BME280;61084;55.816;37.036;2023-02-01T13:10:03;98330.19;;;3.22;68.17
72798;BME280;61084;55.816;37.036;2023-02-01T13:12:43;98326.78;;;3.22;68.04
72798;BME280;61084;55.816;37.036;2023-02-01T13:15:26;98324.38;;;3.17;68.28
72798;BME280;61084;55.816;37.036;2023-02-01T13:17:55;98326.81;;;3.20;67.85
72798;BME280;61084;55.816;37.036;2023-02-01T13:20:37;98329.59;;;3.16;67.75
72798;BME280;61084;55.816;37.036;2023-02-01T13:23:47;98331.41;;;3.14;67.73
72798;BME280;61084;55.816;37.036;2023-02-01T13:26:14;98330.00;;;3.07;67.85
72798;BME280;61084;55.816;37.036;2023-02-01T13:28:50;98327.56;;;3.02;67.86
72798;BME280;61084;55.816;37.036;2023-02-01T13:31:41;98332.75;;;3.02;67.76
72798;BME280;61084;55.816;37.036;2023-02-01T13:39:33;98332.97;;;2.96;68.48
72798;BME280;61084;55.816;37.036;2023-02-01T13:42:05;98331.31;;;2.95;68.31
72798;BME280;61084;55.816;37.036;2023-02-01T13:44:51;98339.00;;;2.96;68.17
72798;BME280;61084;55.816;37.036;2023-02-01T13:49:50;98321.00;;;2.93;68.61
72798;BME280;61084;55.816;37.036;2023-02-01T13:52:28;98328.72;;;2.95;68.43
72798;BME280;61084;55.816;37.036;2023-02-01T13:55:14;98328.78;;;2.93;68.16
72798;BME280;61084;55.816;37.036;2023-02-01T13:57:42;98327.97;;;2.91;68.11
72798;BME280;61084;55.816;37.036;2023-02-01T14:00:29;98324.59;;;2.89;67.97
72798;BME280;61084;55.816;37.036;2023-02-01T14:10:48;98333.41;;;2.85;68.24
72798;BME280;61084;55.816;37.036;2023-02-01T14:13:34;98328.19;;;2.87;68.03
72798;BME280;61084;55.816;37.036;2023-02-01T14:26:50;98343.31;;;2.76;68.38
72798;BME280;61084;55.816;37.036;2023-02-01T14:29:30;98352.81;;;2.75;68.53
72798;BME280;61084;55.816;37.036;2023-02-01T14:34:59;98339.00;;;2.75;69.35
72798;BME280;61084;55.816;37.036;2023-02-01T14:37:31;98348.53;;;2.74;68.86
72798;BME280;61084;55.816;37.036;2023-02-01T14:42:45;98351.06;;;2.76;69.66
72798;BME280;61084;55.816;37.036;2023-02-01T14:55:56;98360.69;;;2.72;69.42
72798;BME280;61084;55.816;37.036;2023-02-01T15:01:33;98366.84;;;2.70;69.41
72798;BME280;61084;55.816;37.036;2023-02-01T15:04:15;98361.78;;;2.67;69.66
72798;BME280;61084;55.816;37.036;2023-02-01T15:06:48;98363.63;;;2.63;69.26
72798;BME280;61084;55.816;37.036;2023-02-01T15:12:15;98366.28;;;2.62;69.37
72798;BME280;61084;55.816;37.036;2023-02-01T15:15:13;98373.19;;;2.61;69.24
72798;BME280;61084;55.816;37.036;2023-02-01T15:17:40;98375.88;;;2.60;69.03
72798;BME280;61084;55.816;37.036;2023-02-01T15:20:24;98376.81;;;2.57;69.11
72798;BME280;61084;55.816;37.036;2023-02-01T15:22:55;98376.09;;;2.54;69.34
72798;BME280;61084;55.816;37.036;2023-02-01T15:25:33;98372.59;;;2.55;69.30
72798;BME280;61084;55.816;37.036;2023-02-01T15:28:00;98377.91;;;2.52;68.88
72798;BME280;61084;55.816;37.036;2023-02-01T15:30:29;98377.91;;;2.52;69.27
72798;BME280;61084;55.816;37.036;2023-02-01T15:33:16;98389.06;;;2.54;69.07
72798;BME280;61084;55.816;37.036;2023-02-01T15:35:44;98383.81;;;2.55;69.18
72798;BME280;61084;55.816;37.036;2023-02-01T15:43:42;98392.53;;;2.53;69.08
72798;BME280;61084;55.816;37.036;2023-02-01T15:46:44;98393.38;;;2.53;69.24
72798;BME280;61084;55.816;37.036;2023-02-01T15:51:47;98399.56;;;2.49;69.21
72798;BME280;61084;55.816;37.036;2023-02-01T15:54:18;98397.06;;;2.48;69.27